Latest Weather Observations for Canberra

IDN60901

Issued at 2:11 pm EST Wednesday 26 April 2017 (issued every 10 minutes, with the page automatically refreshed every 10 minutes)

About weather observations | Map of Canberra area stations | Latest observations for Canberra area | Other Formats
Station Details ID: 070351 Name: CANBERRA AIRPORT Lat: -35.31 Lon: 149.20 Height: 577.05 m
Data from the previous 72 hours. | See also: Recent months at Canberra
Date/Time
EST
Temp
°C
App
Temp
°C
Dew
Point
°C
Rel
Hum
%
Delta-T
°C
Wind Press
QNH
hPa
Press
MSL
hPa
Rain since
9am
mm
Dir  Spd
km/h
Gust
km/h
Spd
kts
Gust
kts
26/02:00pm 11.6 9.7 6.7 72 2.4 W 6 11 3 6 1005.3 1004.3 1.8
26/01:30pm 11.1 7.4 7.8 80 1.7 WNW 17 22 9 12 1005.2 1004.2 1.8
26/01:00pm 10.2 7.3 8.1 87 1.1 NW 13 19 7 10 1005.2 1004.2 1.8
26/12:30pm 9.8 5.1 7.6 86 1.1 WNW 22 33 12 18 1005.5 1004.5 1.2
26/12:00pm 12.5 9.5 9.1 80 1.8 WNW 15 26 8 14 1005.5 1004.5 0.2
26/11:30am 13.2 10.1 8.9 75 2.2 NNW 15 20 8 11 1005.7 1004.7 0.2
26/11:00am 12.2 9.3 9.8 85 1.3 N 15 19 8 10 1005.5 1004.5 0.2
26/10:30am 12.1 9.2 9.5 84 1.4 NNW 15 22 8 12 1006.2 1005.3 0.2
26/10:00am 11.8 8.5 9.5 86 1.2 NNW 17 26 9 14 1006.4 1005.5 0.2
26/09:30am 11.6 8.6 9.3 86 1.2 NW 15 20 8 11 1006.6 1005.7 0.2
26/09:00am 11.8 7.8 9.2 84 1.4 WNW 20 37 11 20 1006.7 1005.8 5.8
26/08:30am 12.7 8.1 9.5 81 1.7 NW 24 32 13 17 1006.6 1005.7 5.2
26/08:00am 12.8 9.0 9.8 82 1.6 NNW 20 26 11 14 1006.4 1005.5 5.2
26/07:30am 12.0 7.4 9.6 85 1.3 NW 24 32 13 17 1006.6 1005.7 5.2
26/07:00am 11.3 6.8 9.9 91 0.7 NW 24 30 13 16 1006.3 1005.4 5.2
26/06:30am 11.5 7.5 10.4 93 0.6 NNW 22 30 12 16 1006.5 1005.6 5.2
26/06:00am 11.6 7.6 10.5 93 0.6 NNW 22 28 12 15 1006.5 1005.6 5.2
26/05:30am 12.3 8.3 10.4 88 1.0 NNW 22 28 12 15 1006.6 1005.7 4.6
26/05:00am 11.5 8.0 10.2 92 0.7 NNW 19 24 10 13 1006.7 1005.8 4.6
26/04:30am 11.4 7.6 9.8 90 0.8 NNW 20 26 11 14 1007.1 1006.1 4.6
26/04:00am 11.9 8.0 9.5 85 1.3 NW 20 28 11 15 1007.2 1006.2 4.6
26/03:30am 12.1 8.4 10.0 87 1.1 NW 20 28 11 15 1007.3 1006.3 4.6
26/03:00am 11.9 8.2 10.3 90 0.9 NW 20 24 11 13 1007.4 1006.5 4.6
26/02:30am 12.3 8.7 10.5 89 1.0 NW 20 28 11 15 1007.5 1006.6 4.6
26/02:00am 12.6 9.4 11.3 92 0.7 NNW 19 24 10 13 1007.7 1006.8 4.6
26/01:30am 12.3 9.1 11.2 93 0.6 NW 19 26 10 14 1008.0 1007.1 4.6
26/01:00am 13.1 9.8 11.7 91 0.8 NNW 20 30 11 16 1008.2 1007.3 4.6
26/12:30am 13.4 10.3 11.6 89 1.0 NNW 19 24 10 13 1008.4 1007.5 4.6
26/12:00am 12.8 10.0 11.4 91 0.8 NW 17 20 9 11 1008.6 1007.7 4.6
 
Date/Time
EST
Temp
°C
App
Temp
°C
Dew
Point
°C
Rel
Hum
%
Delta-T
°C
Wind Press
QNH
hPa
Press
MSL
hPa
Rain since
9am
mm
Dir  Spd
km/h
Gust
km/h
Spd
kts
Gust
kts
25/11:47pm 13.6 10.8 11.5 87 1.2 WNW 17 24 9 13 1008.9 1008.0 4.6
25/11:34pm 13.6 10.9 11.8 89 1.0 WNW 17 20 9 11 1009.0 1008.1 4.6
25/11:30pm 13.5 10.9 11.9 90 0.9 NW 17 20 9 11 1009.1 1008.2 4.0
25/11:00pm 13.2 9.8 11.3 88 1.0 NW 20 26 11 14 1008.9 1008.0 3.6
25/10:30pm 12.8 9.9 10.9 88 1.0 NNW 17 19 9 10 1008.8 1007.8 3.6
25/10:00pm 12.5 10.3 10.9 90 0.9 NNW 13 15 7 8 1009.2 1008.3 3.6
25/09:30pm 13.4 10.1 10.8 84 1.4 NW 19 22 10 12 1009.3 1008.4 3.6
25/09:00pm 14.0 10.7 11.5 85 1.4 NW 20 28 11 15 1009.4 1008.5 3.6
25/08:30pm 13.8 10.5 11.5 86 1.3 NW 20 28 11 15 1009.3 1008.4 3.6
25/08:00pm 14.3 10.7 11.8 85 1.4 NW 22 30 12 16 1009.2 1008.3 3.6
25/07:30pm 14.2 11.3 12.2 88 1.1 NW 19 24 10 13 1009.0 1008.1 3.6
25/07:00pm 14.5 11.2 12.7 89 1.0 NW 22 28 12 15 1009.0 1008.1 3.6
25/06:30pm 15.0 11.5 13.4 90 0.9 NNW 24 32 13 17 1008.5 1007.6 3.6
25/06:00pm 15.4 10.0 13.8 90 0.9 NNW 35 44 19 24 1008.2 1007.3 3.6
25/05:30pm 15.8 11.8 14.0 89 1.0 NNW 28 41 15 22 1007.9 1007.0 3.6
25/05:00pm 15.7 10.8 13.7 88 1.2 NNW 32 44 17 24 1007.7 1006.8 3.6
25/04:30pm 15.9 10.8 13.7 87 1.3 NNW 33 43 18 23 1007.6 1006.7 3.6
25/04:00pm 16.5 12.2 14.3 87 1.3 NW 30 39 16 21 1007.7 1006.8 3.6
25/03:30pm 16.0 11.4 14.5 91 0.9 NNW 32 43 17 23 1007.7 1006.8 3.6
25/03:24pm 15.9 11.5 14.1 89 1.0 NNW 30 43 16 23 1007.9 1007.0 3.6
25/03:00pm 16.6 11.7 14.4 87 1.3 NW 33 44 18 24 1007.9 1007.0 3.6
25/02:30pm 16.1 10.6 14.8 92 0.8 NNW 37 50 20 27 1007.9 1007.0 3.6
25/02:00pm 16.4 11.4 15.1 92 0.8 NNW 35 48 19 26 1008.3 1007.4 3.4
25/01:43pm 15.9 11.2 14.3 90 0.9 NNW 32 50 17 27 1008.8 1007.8 3.4
25/01:30pm 15.6 10.7 14.3 92 0.8 NW 33 48 18 26 1009.3 1008.4 3.2
25/01:00pm 15.3 10.4 14.2 93 0.6 NNW 33 46 18 25 1009.4 1008.5 3.0
25/12:30pm 15.4 9.8 14.4 94 0.6 NNW 37 52 20 28 1009.8 1008.9 2.2
25/12:00pm 15.6 10.4 14.5 93 0.6 NNW 35 46 19 25 1010.3 1009.4 1.8
25/11:30am 15.5 10.4 14.7 95 0.5 NNW 35 44 19 24 1011.2 1010.3 1.6
25/11:13am 15.1 9.8 14.1 94 0.6 NNW 35 54 19 29 1011.6 1010.7 1.0
25/11:00am 15.2 10.5 14.2 94 0.6 NNW 32 44 17 24 1011.7 1010.8 1.0
25/10:30am 15.6 11.9 14.0 90 0.9 NNW 26 41 14 22 1012.2 1011.4 0.2
25/10:00am 15.5 13.9 13.9 90 0.9 W 15 19 8 10 1012.5 1011.6 0.0
25/09:30am 16.5 17.1 13.2 81 1.9 WSW 2 7 1 4 1012.0 1011.2 0.0
25/09:00am 15.4 15.5 13.8 90 0.9 NNE 6 7 3 4 1012.7 1011.8 2.2
25/08:30am 14.6 15.7 13.5 93 0.6 CALM 0 0 0 0 1013.3 1012.4 2.2
25/08:00am 13.9 12.9 13.3 96 0.3 NNE 11 15 6 8 1013.4 1012.6 2.2
25/07:30am 13.7 14.6 12.8 94 0.5 CALM 0 0 0 0 1013.7 1012.9 2.0
25/07:00am 13.5 13.9 12.4 93 0.6 NNW 2 6 1 3 1013.6 1012.8 1.6
25/06:30am 13.2 13.4 12.9 98 0.2 N 4 9 2 5 1013.5 1012.7 0.6
25/06:00am 12.8 12.5 12.6 99 0.1 SE 6 7 3 4 1013.7 1012.9 0.4
25/05:30am 13.1 13.6 12.9 99 0.1 SSE 2 6 1 3 1014.1 1013.3 0.4
25/05:00am 13.0 13.8 12.5 97 0.3 CALM 0 0 0 0 1014.3 1013.4 0.4
25/04:30am 12.5 13.1 12.0 97 0.3 CALM 0 2 0 1 1014.4 1013.5 0.2
25/04:00am 12.1 12.5 11.2 94 0.5 CALM 0 0 0 0 1014.6 1013.7 0.0
25/03:30am 12.2 12.6 11.1 93 0.6 CALM 0 0 0 0 1014.7 1013.8 0.0
25/03:00am 11.9 12.1 10.5 91 0.7 CALM 0 0 0 0 1015.1 1014.3 0.0
25/02:30am 11.7 11.9 10.4 92 0.7 CALM 0 0 0 0 1015.6 1014.8 0.0
25/02:00am 11.2 10.5 10.1 93 0.6 S 4 7 2 4 1016.0 1015.2 0.0
25/01:30am 11.2 10.1 10.0 92 0.6 ESE 6 7 3 4 1016.5 1015.7 0.0
25/01:00am 11.5 11.5 9.9 90 0.8 CALM 0 2 0 1 1016.9 1016.1 0.0
25/12:30am 12.1 11.0 10.5 90 0.9 SSW 7 7 4 4 1017.4 1016.6 0.0
25/12:00am 11.5 11.5 9.9 90 0.8 CALM 0 0 0 0 1017.8 1017.1 0.0
 
Date/Time
EST
Temp
°C
App
Temp
°C
Dew
Point
°C
Rel
Hum
%
Delta-T
°C
Wind Press
QNH
hPa
Press
MSL
hPa
Rain since
9am
mm
Dir  Spd
km/h
Gust
km/h
Spd
kts
Gust
kts
24/11:30pm 11.6 10.3 9.2 85 1.2 N 6 7 3 4 1018.3 1017.5 0.0
24/11:00pm 11.7 11.6 9.6 87 1.1 CALM 0 0 0 0 1018.4 1017.6 0.0
24/10:30pm 11.8 10.0 9.5 86 1.2 ESE 9 11 5 6 1018.7 1017.9 0.0
24/10:00pm 11.6 10.7 9.3 86 1.2 SSE 4 7 2 4 1019.0 1018.2 0.0
24/09:30pm 12.3 10.5 9.5 83 1.5 SE 9 11 5 6 1019.0 1018.2 0.0
24/09:00pm 11.5 10.1 9.6 88 1.0 S 7 9 4 5 1019.1 1018.3 0.0
24/08:30pm 12.5 12.4 9.3 81 1.7 CALM 0 2 0 1 1019.1 1018.3 0.0
24/08:00pm 12.9 11.6 9.2 78 1.9 SSE 6 11 3 6 1018.9 1018.1 0.0
24/07:30pm 14.2 12.8 9.4 73 2.5 SE 7 9 4 5 1018.9 1018.1 0.0
24/07:00pm 13.7 13.6 9.6 76 2.2 CALM 0 0 0 0 1019.1 1018.3 0.0
24/06:30pm 15.2 14.0 9.6 69 3.0 N 6 7 3 4 1018.9 1018.1 0.0
24/06:00pm 15.5 14.1 9.6 68 3.1 NNE 7 7 4 4 1018.6 1017.8 0.0
24/05:30pm 18.5 16.8 9.8 57 4.7 NW 9 11 5 6 1018.6 1017.8 0.0
24/05:00pm 18.5 16.0 9.6 56 4.8 NW 13 15 7 8 1018.5 1017.7 0.0
24/04:30pm 20.5 18.0 9.7 50 5.9 NW 13 19 7 10 1018.4 1017.6 0.0
24/04:00pm 21.6 18.9 8.8 44 7.0 NW 13 19 7 10 1018.5 1017.7 0.0
24/03:30pm 21.2 18.4 10.1 49 6.2 NW 15 19 8 10 1018.7 1017.9 0.0
24/03:00pm 21.5 19.1 10.0 48 6.4 WNW 13 17 7 9 1018.8 1018.0 0.0
24/02:30pm 21.4 18.7 10.3 49 6.2 NNW 15 24 8 13 1018.9 1018.1 0.0
24/02:00pm 21.7 19.0 10.2 48 6.4 NNW 15 22 8 12 1019.2 1018.4 0.0
24/01:30pm 21.4 19.3 11.1 52 5.8 WNW 13 20 7 11 1019.6 1018.9 0.0
24/01:00pm 20.7 19.4 11.3 55 5.3 WNW 9 15 5 8 1020.1 1019.3 0.0
24/12:30pm 19.9 19.0 12.7 63 4.2 NW 9 17 5 9 1020.7 1019.9 0.0
24/12:00pm 18.8 18.4 12.5 67 3.6 N 6 11 3 6 1021.3 1020.6 0.0
24/11:30am 17.7 17.4 13.2 75 2.6 WNW 7 13 4 7 1022.1 1021.3 0.0
24/11:00am 16.1 16.9 12.7 80 1.9 CALM 0 6 0 3 1022.8 1022.1 0.0
24/10:30am 14.4 14.7 12.3 87 1.2 N 2 7 1 4 1023.3 1022.6 0.0
24/10:00am 13.4 14.3 12.9 97 0.3 CALM 0 0 0 0 1023.8 1023.0 0.0
24/09:30am 12.5 12.1 12.3 99 0.1 S 6 9 3 5 1023.9 1023.2 0.0
24/09:00am 11.7 11.0 11.5 99 0.1 S 6 9 3 5 1024.1 1023.4 0.0
24/08:57am 11.8 11.2 11.6 99 0.1 SSE 6 9 3 5 1024.1 1023.4 0.0
24/08:30am 11.2 10.2 11.0 99 0.1 ESE 7 9 4 5 1024.1 1023.4 0.0
24/08:00am 10.8 9.7 10.6 99 0.1 ESE 7 9 4 5 1024.1 1023.4 0.0
24/07:30am 10.6 10.0 10.4 99 0.1 ESE 4 11 2 6 1024.0 1023.3 0.0
24/07:29am 10.5 10.3 10.3 99 0.1 ESE 2 9 1 5 1024.0 1023.3 0.0
24/07:21am 10.1 10.2 10.0 99 0.1 CALM 0 0 0 0 1024.0 1023.3 0.0
24/07:08am 9.6 8.4 9.5 99 0.1 ENE 6 9 3 5 1023.9 1023.2 0.0
24/07:03am 9.4 7.6 9.3 99 0.1 ENE 9 11 5 6 1023.9 1023.2 0.0
24/07:00am 9.3 7.4 9.2 99 0.1 E 9 11 5 6 1023.8 1023.0 0.0
24/06:57am 9.0 7.1 8.9 99 0.1 E 9 11 5 6 1023.7 1022.9 0.0
24/06:39am 9.2 9.0 9.1 99 0.1 CALM 0 0 0 0 1023.7 1022.9 0.0
24/06:30am 9.1 8.5 9.0 99 0.1 ESE 2 7 1 4 1023.7 1022.9 0.0
24/06:14am 9.4 7.9 9.3 99 0.1 SE 7 9 4 5 1023.6 1022.8 0.0
24/06:00am 9.2 7.7 9.1 99 0.1 SSE 7 9 4 5 1023.6 1022.8 0.0
24/05:43am 9.6 9.5 9.5 99 0.1 CALM 0 0 0 0 1023.4 1022.7 0.0
24/05:30am 9.1 8.9 9.0 99 0.1 CALM 0 0 0 0 1023.3 1022.6 0.0
24/05:05am 8.7 8.4 8.6 99 0.1 CALM 0 0 0 0 1023.1 1022.4 0.0
24/05:00am 8.4 8.0 8.3 99 0.0 CALM 0 0 0 0 1023.0 1022.3 0.0
24/04:30am 9.0 8.0 8.9 99 0.1 SSE 4 7 2 4 1022.9 1022.2 0.0
24/04:00am 9.0 7.6 8.9 99 0.1 ESE 6 9 3 5 1022.8 1022.1 0.0
24/03:55am 9.2 8.6 9.1 99 0.1 E 2 9 1 5 1022.8 1022.1 0.0
24/03:30am 9.8 8.6 9.7 99 0.1 N 6 6 3 3 1023.0 1022.3 0.0
24/03:07am 10.3 10.0 10.1 99 0.1 ENE 2 7 1 4 1023.0 1022.3 0.0
24/03:00am 10.2 10.3 10.1 99 0.1 CALM 0 0 0 0 1023.0 1022.3 0.0
24/02:30am 11.7 12.2 11.5 99 0.1 CALM 0 0 0 0 1023.3 1022.6 0.0
24/02:29am 11.8 12.3 11.6 99 0.1 CALM 0 0 0 0 1023.3 1022.6 0.0
24/02:00am 11.8 11.8 11.0 95 0.4 SSE 2 7 1 4 1023.6 1022.8 0.0
24/01:30am 12.4 11.8 11.6 95 0.4 ESE 6 7 3 4 1023.7 1022.9 0.0
24/01:00am 13.5 14.3 12.4 93 0.6 CALM 0 0 0 0 1024.0 1023.3 0.0
24/12:30am 13.0 12.5 11.9 93 0.6 ENE 6 9 3 5 1024.2 1023.5 0.0
24/12:00am 12.6 13.0 11.2 91 0.8 CALM 0 0 0 0 1024.3 1023.6 0.0
 
Date/Time
EST
Temp
°C
App
Temp
°C
Dew
Point
°C
Rel
Hum
%
Delta-T
°C
Wind Press
QNH
hPa
Press
MSL
hPa
Rain since
9am
mm
Dir  Spd
km/h
Gust
km/h
Spd
kts
Gust
kts
23/11:30pm 13.4 12.9 12.0 91 0.8 E 6 7 3 4 1024.5 1023.8 0.0
23/11:00pm 14.5 14.0 12.5 88 1.1 SE 7 7 4 4 1024.7 1024.0 0.0
23/10:30pm 15.0 14.2 12.9 87 1.2 ESE 9 11 5 6 1024.8 1024.1 0.0
23/10:00pm 15.0 14.1 12.5 85 1.4 SE 9 11 5 6 1024.9 1024.2 0.0
23/09:30pm 15.3 14.3 12.2 82 1.7 SSE 9 9 5 5 1024.9 1024.2 0.0
23/09:00pm 16.0 15.4 12.2 78 2.1 SSE 7 11 4 6 1024.8 1024.1 0.0
23/08:30pm 15.7 15.0 11.9 78 2.1 SE 7 9 4 5 1024.6 1023.9 0.0
23/08:00pm 16.2 14.9 11.4 73 2.7 NE 9 9 5 5 1024.4 1023.7 0.0
23/07:30pm 17.0 16.0 11.1 68 3.3 E 7 9 4 5 1024.1 1023.4 0.0
23/07:00pm 17.1 15.3 10.9 67 3.4 E 11 17 6 9 1023.8 1023.0 0.0
23/06:30pm 17.4 15.6 11.0 66 3.5 ESE 11 13 6 7 1023.4 1022.7 0.0
23/06:00pm 17.5 15.6 10.4 63 3.9 ESE 11 13 6 7 1023.1 1022.4 0.0
23/05:30pm 18.2 15.8 10.1 59 4.4 SE 13 17 7 9 1022.9 1022.2 0.0
23/05:00pm 19.3 17.5 10.8 58 4.7 SW 11 13 6 7 1022.6 1021.9 0.0
23/04:30pm 19.8 17.5 10.5 55 5.2 WSW 13 17 7 9 1022.4 1021.7 0.0
23/04:00pm 20.4 17.9 6.7 41 7.1 W 9 11 5 6 1022.2 1021.4 0.0
23/03:30pm 21.2 19.6 6.3 38 7.7 WSW 4 7 2 4 1022.2 1021.4 0.0
23/03:00pm 22.1 19.5 6.3 36 8.2 WSW 9 11 5 6 1022.1 1021.3 0.0
23/02:30pm 21.6 19.4 7.8 41 7.4 W 9 15 5 8 1022.3 1021.5 0.0

Latest Capital City Observations: Canberra | Sydney | Melbourne | Brisbane | Adelaide | Perth | Hobart | Darwin

Other Formats:

Comma delimited format used in spreadsheet applications
http://www.bom.gov.au/fwo/IDN60903/IDN60903.94926.axf

JavaScript Object Notation format (JSON) in row-major order
http://www.bom.gov.au/fwo/IDN60903/IDN60903.94926.json